Main page
METAR-TAF:

METAR-TAF

Airports :

Platov International Airport

Rostov-on-Don, Russia

latitude: 47-29-38N, longitude: 039-55-29E, elevation: 65 m

Current weather observation

The report was made 38 minutes ago, at 18:00 UTC
Wind 10 kt from the West/Southwest
Temperature 1°C
Humidity 100%
Pressure 1026 hPa
Visibility 10 km or more
no clouds below 1500 m and no cumulonimbus

METAR: URRP 061800Z 24005MPS CAVOK 01/01 Q1026 R23/CLRD70 TEMPO 0300 FG SCT002 RMK QFE761/1015

Time: 22:38 (18:38 UTC)

Forecast

The report was made 1 hour and 39 minutes ago, at 16:59 UTC
Forecast valid from 06 at 18 UTC to 07 at 18 UTC
Wind 6 kt from the West/Southwest with gusts up to 16 kt
Visibility: 3100 m
Broken clouds at a height of 1100 ft
mist
Probability 40% :
Temporary
from 06 at 18 UTC to 07 at 18 UTC
Visibility: 0300 m
Overcast at a height of 100 ft
(light) freezing, drizzle, freezing fog

TAF: URRP 061659Z 0618/0718 24003G08MPS 3100 BR BKN011 PROB40 TEMPO 0618/0718 0300 -FZDZ FZFG OVC001

Weather observations and forecasts of more than 4000 airports (METAR and TAF reports).

The available stations are represented by yellow and red dots on the map.

Hover mouse over dot to see the name of the station.

Then click to see weather observations and forecasts.

To change the map : click on the green buttons with a black cross to zoom in, on the green button with a dash to zoom out, or on the green arrows for adjacent maps.


METAR-TAF: